createdAt,value
2022-09-06T00:01:23.350Z,3.93
2022-09-06T00:03:51.683Z,3.80
2022-09-06T00:06:21.195Z,3.73
2022-09-06T00:08:49.709Z,3.90
2022-09-06T00:11:18.695Z,4.10
2022-09-06T00:13:48.595Z,3.60
2022-09-06T00:16:18.697Z,3.70
2022-09-06T00:18:47.316Z,2.40
2022-09-06T00:21:17.814Z,3.00
2022-09-06T00:23:45.682Z,2.80
2022-09-06T00:26:13.755Z,3.50
2022-09-06T00:28:41.927Z,3.90
2022-09-06T00:31:12.919Z,3.50
2022-09-06T00:33:41.385Z,3.50
2022-09-06T00:36:10.080Z,3.60
2022-09-06T00:38:38.296Z,3.40
2022-09-06T00:41:07.471Z,3.77
2022-09-06T00:43:35.371Z,3.67
2022-09-06T00:46:04.177Z,3.83
2022-09-06T00:48:33.873Z,3.87
2022-09-06T00:51:05.067Z,3.90
2022-09-06T00:53:33.555Z,3.80
2022-09-06T00:56:04.796Z,3.90
2022-09-06T00:58:32.799Z,3.57
2022-09-06T01:01:01.195Z,3.63
2022-09-06T01:03:29.295Z,3.90
2022-09-06T01:06:06.780Z,3.70
2022-09-06T01:08:50.185Z,3.63
2022-09-06T01:11:40.953Z,3.53
2022-09-06T01:14:20.841Z,3.80
2022-09-06T01:16:56.192Z,3.87
2022-09-06T01:19:56.219Z,3.70
2022-09-06T01:22:47.597Z,3.77
2022-09-06T01:25:34.589Z,3.93
2022-09-06T01:28:25.785Z,3.70
2022-09-06T01:31:01.667Z,4.17
2022-09-06T01:33:38.707Z,3.77
2022-09-06T01:36:12.238Z,3.97
2022-09-06T01:38:40.198Z,4.17
2022-09-06T01:41:08.997Z,3.63
2022-09-06T01:43:42.302Z,4.30
2022-09-06T01:46:17.736Z,4.40
2022-09-06T01:49:01.739Z,4.57
2022-09-06T01:51:36.330Z,4.20
2022-09-06T01:54:25.598Z,4.53
2022-09-06T01:57:04.631Z,4.80
2022-09-06T01:59:49.405Z,4.27
2022-09-06T02:02:24.498Z,4.20
2022-09-06T02:04:56.055Z,4.03
2022-09-06T02:07:27.962Z,4.40
2022-09-06T02:10:00.753Z,4.20
2022-09-06T02:12:32.643Z,4.17
2022-09-06T02:15:07.120Z,3.77
2022-09-06T02:17:40.541Z,4.10
2022-09-06T02:20:12.612Z,4.27
2022-09-06T02:22:45.076Z,4.00
2022-09-06T02:25:19.568Z,4.10
2022-09-06T02:27:47.543Z,4.03
2022-09-06T02:30:17.034Z,4.20
2022-09-06T02:32:51.543Z,4.27
2022-09-06T02:35:19.460Z,3.80
2022-09-06T02:37:47.450Z,3.50
2022-09-06T02:40:15.448Z,3.30
2022-09-06T02:42:43.293Z,3.40
2022-09-06T02:45:11.691Z,3.60
2022-09-06T02:47:40.875Z,3.87
2022-09-06T02:50:09.626Z,3.83
2022-09-06T02:52:37.426Z,4.17
2022-09-06T02:55:06.046Z,4.03
2022-09-06T02:57:33.879Z,4.30
2022-09-06T03:00:01.692Z,4.07
2022-09-06T03:02:29.499Z,3.87
2022-09-06T03:04:58.675Z,4.30
2022-09-06T03:07:26.661Z,4.20
2022-09-06T03:09:56.733Z,3.80
2022-09-06T03:12:24.556Z,3.90
2022-09-06T03:14:54.971Z,3.90
2022-09-06T03:17:23.220Z,3.00
2022-09-06T03:19:51.072Z,3.03
2022-09-06T03:22:20.898Z,3.17
2022-09-06T03:24:49.104Z,3.40
2022-09-06T03:27:17.025Z,3.90
2022-09-06T03:29:44.956Z,3.90
2022-09-06T03:32:12.786Z,3.40
2022-09-06T03:34:40.541Z,4.00
2022-09-06T03:37:08.796Z,3.90
2022-09-06T03:39:38.035Z,4.07
2022-09-06T03:42:06.029Z,4.27
2022-09-06T03:44:34.036Z,4.27
2022-09-06T03:47:01.892Z,3.73
2022-09-06T03:49:29.754Z,3.80
2022-09-06T03:51:57.606Z,4.07
2022-09-06T03:54:25.587Z,3.87
2022-09-06T03:56:54.737Z,2.87
2022-09-06T03:59:22.499Z,3.10
2022-09-06T04:01:50.324Z,3.37
2022-09-06T04:04:18.135Z,3.77
2022-09-06T04:06:46.002Z,4.00
2022-09-06T04:09:15.345Z,3.80
2022-09-06T04:11:45.135Z,4.30
2022-09-06T04:14:14.543Z,4.53
2022-09-06T04:16:42.434Z,4.23
2022-09-06T04:19:10.305Z,4.33
2022-09-06T04:21:38.715Z,4.10
2022-09-06T04:24:06.942Z,4.60
2022-09-06T04:26:34.846Z,4.20
2022-09-06T04:29:02.744Z,4.30
2022-09-06T04:31:31.984Z,4.13
2022-09-06T04:33:59.855Z,4.13
2022-09-06T04:36:27.679Z,4.00
2022-09-06T04:38:55.815Z,4.30
2022-09-06T04:41:23.674Z,4.10
2022-09-06T04:43:51.500Z,4.10
2022-09-06T04:46:22.601Z,4.70
2022-09-06T04:48:53.059Z,4.30
2022-09-06T04:51:21.560Z,4.17
2022-09-06T04:53:49.787Z,4.40
2022-09-06T04:56:20.840Z,4.77
2022-09-06T04:58:49.900Z,5.00
2022-09-06T05:01:18.325Z,5.00
2022-09-06T05:03:46.229Z,4.90
2022-09-06T05:06:20.777Z,4.67
2022-09-06T05:08:49.395Z,4.70
2022-09-06T05:11:17.347Z,4.50
2022-09-06T05:13:46.692Z,4.90
2022-09-06T05:16:14.906Z,4.50
2022-09-06T05:18:42.767Z,4.70
2022-09-06T05:21:10.690Z,5.13
2022-09-06T05:23:39.871Z,4.63
2022-09-06T05:26:07.809Z,4.60
2022-09-06T05:28:36.110Z,4.90
2022-09-06T05:31:08.772Z,5.73
2022-09-06T05:33:36.600Z,5.37
2022-09-06T05:36:05.103Z,5.30
2022-09-06T05:38:33.176Z,6.57
2022-09-06T05:41:02.626Z,6.70
2022-09-06T05:43:30.523Z,6.50
2022-09-06T05:45:58.426Z,6.00
2022-09-06T05:48:26.386Z,6.03
2022-09-06T05:51:01.428Z,5.97
2022-09-06T05:53:38.024Z,6.70
2022-09-06T05:56:10.579Z,5.70
2022-09-06T05:58:38.953Z,6.73
2022-09-06T06:01:09.884Z,6.93
2022-09-06T06:03:38.936Z,6.27
2022-09-06T06:06:10.399Z,5.57
2022-09-06T06:08:38.273Z,6.30
2022-09-06T06:11:07.527Z,5.73
2022-09-06T06:13:39.390Z,5.63
2022-09-06T06:16:07.922Z,5.73
2022-09-06T06:18:35.747Z,5.47
2022-09-06T06:21:11.701Z,6.37
2022-09-06T06:23:39.708Z,6.40
2022-09-06T06:26:10.010Z,6.30
2022-09-06T06:28:38.325Z,6.53
2022-09-06T06:31:07.004Z,6.07
2022-09-06T06:33:36.285Z,6.70
2022-09-06T06:36:06.900Z,6.40
2022-09-06T06:38:37.341Z,7.10
2022-09-06T06:41:11.289Z,6.57
2022-09-06T06:43:39.067Z,7.17
2022-09-06T06:46:08.531Z,7.03
2022-09-06T06:48:37.143Z,6.97
2022-09-06T06:51:05.439Z,7.17
2022-09-06T06:53:33.811Z,6.73
2022-09-06T06:56:01.876Z,6.97
2022-09-06T06:58:31.992Z,6.70
2022-09-06T07:00:59.938Z,6.80
2022-09-06T07:03:27.825Z,5.80
2022-09-06T07:06:12.008Z,6.40
2022-09-06T07:08:41.291Z,5.47
2022-09-06T07:11:11.038Z,6.27
2022-09-06T07:13:40.386Z,6.33
2022-09-06T07:16:09.872Z,6.13
2022-09-06T07:18:41.923Z,6.33
2022-09-06T07:24:06.544Z,6.23
2022-09-06T07:26:36.162Z,5.90
2022-09-06T07:29:06.991Z,5.83
2022-09-06T07:34:25.221Z,5.17
2022-09-06T07:36:53.981Z,4.90
2022-09-06T07:39:22.185Z,5.20
2022-09-06T07:41:50.057Z,4.53
2022-09-06T07:44:19.442Z,4.80
2022-09-06T07:46:47.523Z,5.10
2022-09-06T07:49:15.443Z,4.40
2022-09-06T07:51:43.263Z,4.47
2022-09-06T07:54:29.901Z,4.10
2022-09-06T07:56:58.510Z,4.23
2022-09-06T07:59:27.718Z,3.77
2022-09-06T08:01:55.636Z,3.43
2022-09-06T08:04:23.530Z,3.57
2022-09-06T08:09:41.099Z,3.53
2022-09-06T08:12:09.796Z,3.60
2022-09-06T08:14:39.062Z,3.37
2022-09-06T08:17:07.107Z,3.27
2022-09-06T08:19:35.555Z,3.10
2022-09-06T08:22:03.756Z,2.90
2022-09-06T08:24:32.784Z,3.00
2022-09-06T08:27:00.652Z,2.53
2022-09-06T08:29:28.525Z,2.90
2022-09-06T08:31:57.840Z,2.40
2022-09-06T08:34:26.232Z,2.23
2022-09-06T08:36:54.182Z,2.20
2022-09-06T08:39:21.989Z,2.33
2022-09-06T08:41:55.022Z,2.10
2022-09-06T08:47:15.704Z,2.50
2022-09-06T08:49:46.135Z,2.20
2022-09-06T08:52:30.004Z,2.00
2022-09-06T08:55:11.721Z,2.13
2022-09-06T08:57:53.204Z,2.10
2022-09-06T09:00:23.080Z,2.30
2022-09-06T09:02:56.266Z,1.98
2022-09-06T09:05:27.247Z,1.83
2022-09-06T09:08:06.585Z,2.25
2022-09-06T09:10:42.459Z,1.90
2022-09-06T09:13:19.808Z,2.15
2022-09-06T09:15:47.723Z,2.30
2022-09-06T09:18:21.535Z,2.50
2022-09-06T09:20:49.455Z,2.10
2022-09-06T09:23:17.483Z,2.10
2022-09-06T09:25:46.788Z,2.10
2022-09-06T09:28:18.808Z,2.10
2022-09-06T09:30:49.841Z,2.17
2022-09-06T09:33:31.232Z,2.30
2022-09-06T09:36:01.155Z,2.22
2022-09-06T09:38:31.500Z,2.28
2022-09-06T09:41:02.638Z,2.30
2022-09-06T09:43:32.620Z,2.42
2022-09-06T09:46:17.101Z,2.20
2022-09-06T09:49:02.045Z,2.42
2022-09-06T09:51:31.481Z,2.22
2022-09-06T09:54:01.020Z,2.20
2022-09-06T09:56:36.879Z,2.00
2022-09-06T09:59:16.685Z,1.88
2022-09-06T10:01:44.810Z,2.20
2022-09-06T10:07:11.027Z,1.90
2022-09-06T10:09:42.515Z,1.83
2022-09-06T10:12:17.394Z,2.20
2022-09-06T10:14:47.119Z,1.90
2022-09-06T10:17:28.939Z,2.08
2022-09-06T10:20:01.558Z,2.10
2022-09-06T10:22:31.128Z,1.90
2022-09-06T10:25:22.257Z,2.20
2022-09-06T10:28:11.281Z,1.92
2022-09-06T10:30:45.925Z,2.00
2022-09-06T10:33:27.239Z,1.98
2022-09-06T10:35:58.893Z,1.92
2022-09-06T10:38:42.921Z,1.85
2022-09-06T10:41:33.173Z,1.90
2022-09-06T10:44:12.984Z,1.90
2022-09-06T10:46:45.620Z,2.28
2022-09-06T10:49:19.411Z,2.30
2022-09-06T10:51:53.289Z,1.67
2022-09-06T10:54:23.800Z,2.17
2022-09-06T10:56:56.953Z,2.30
2022-09-06T11:02:13.906Z,2.28
2022-09-06T11:07:37.947Z,2.25
2022-09-06T11:10:11.427Z,2.40
2022-09-06T11:12:43.625Z,2.30
2022-09-06T11:15:14.483Z,2.33
2022-09-06T11:17:47.874Z,2.20
2022-09-06T11:20:21.477Z,2.10
2022-09-06T11:23:33.801Z,2.40
2022-09-06T11:26:22.246Z,2.10
2022-09-06T11:28:54.936Z,2.00
2022-09-06T11:34:21.726Z,2.30
2022-09-06T11:36:51.846Z,2.13
2022-09-06T11:43:03.053Z,2.70
2022-09-06T11:45:43.275Z,2.30
2022-09-06T11:48:37.303Z,2.60
2022-09-06T11:51:10.637Z,2.55
2022-09-06T11:54:06.359Z,1.92
2022-09-06T11:56:41.708Z,2.38
2022-09-06T11:59:24.308Z,2.50
2022-09-06T12:02:01.635Z,2.30
2022-09-06T12:05:03.973Z,2.25
2022-09-06T12:07:32.745Z,2.45
2022-09-06T12:10:02.303Z,2.28
2022-09-06T12:12:42.288Z,2.10
2022-09-06T12:15:26.347Z,2.40
2022-09-06T12:17:54.544Z,2.40
2022-09-06T12:20:59.612Z,2.53
2022-09-06T12:23:42.399Z,2.58
2022-09-06T12:26:11.750Z,2.40
2022-09-06T12:28:53.693Z,2.70
2022-09-06T12:31:37.674Z,2.70
2022-09-06T12:34:14.907Z,2.60
2022-09-06T12:36:59.079Z,2.40
2022-09-06T12:39:26.963Z,2.70
2022-09-06T12:41:58.342Z,2.95
2022-09-06T12:44:34.883Z,2.72
2022-09-06T12:47:08.146Z,2.40
2022-09-06T12:49:35.953Z,2.70
2022-09-06T12:52:09.182Z,2.55
2022-09-06T12:54:48.011Z,2.60
2022-09-06T12:57:20.302Z,2.63
2022-09-06T12:59:54.824Z,2.30
2022-09-06T13:02:30.914Z,2.53
2022-09-06T13:05:05.393Z,2.40
2022-09-06T13:07:35.402Z,2.72
2022-09-06T13:10:04.141Z,2.70
2022-09-06T13:12:34.982Z,2.75
2022-09-06T13:15:08.722Z,2.47
2022-09-06T13:17:38.347Z,2.30
2022-09-06T13:20:14.349Z,2.50
2022-09-06T13:22:46.128Z,2.78
2022-09-06T13:25:25.749Z,2.83
2022-09-06T13:27:57.749Z,2.60
2022-09-06T13:30:38.593Z,2.70
2022-09-06T13:33:08.235Z,2.70
2022-09-06T13:35:38.997Z,2.53
2022-09-06T13:38:39.283Z,2.70
2022-09-06T13:41:13.483Z,2.47
2022-09-06T13:43:45.913Z,2.45
2022-09-06T13:46:18.743Z,2.60
2022-09-06T13:48:46.537Z,2.70
2022-09-06T13:51:14.325Z,2.70
2022-09-06T13:53:42.458Z,2.70
2022-09-06T13:56:11.919Z,2.35
2022-09-06T13:58:39.876Z,2.67
2022-09-06T14:01:09.820Z,2.65
2022-09-06T14:03:42.778Z,2.63
2022-09-06T14:06:11.129Z,2.75
2022-09-06T14:09:05.371Z,2.78
2022-09-06T14:11:27.404Z,2.63
2022-09-06T14:13:55.255Z,2.45
2022-09-06T14:16:23.131Z,2.60
2022-09-06T14:18:53.049Z,2.60
2022-09-06T14:21:21.248Z,2.60
2022-09-06T14:23:51.537Z,2.88
2022-09-06T14:26:20.883Z,2.83
2022-09-06T14:28:48.993Z,2.70
2022-09-06T14:31:18.779Z,2.83
2022-09-06T14:33:46.922Z,3.10
2022-09-06T14:36:17.353Z,2.70
2022-09-06T14:38:47.039Z,2.60
2022-09-06T14:41:17.704Z,2.65
2022-09-06T14:43:51.256Z,2.65
2022-09-06T14:46:20.197Z,2.58
2022-09-06T14:48:48.582Z,2.70
2022-09-06T14:51:21.980Z,3.00
2022-09-06T14:53:51.963Z,3.17
2022-09-06T14:56:22.958Z,2.80
2022-09-06T14:58:57.113Z,2.63
2022-09-06T15:01:26.864Z,2.95
2022-09-06T15:03:57.111Z,2.67
2022-09-06T15:06:27.850Z,2.63
2022-09-06T15:08:59.331Z,2.60
2022-09-06T15:11:34.323Z,2.60
2022-09-06T15:14:02.813Z,2.90
2022-09-06T15:16:32.595Z,2.90
2022-09-06T15:19:02.268Z,2.70
2022-09-06T15:21:32.926Z,2.70
2022-09-06T15:24:01.981Z,2.60
2022-09-06T15:26:31.141Z,2.75
2022-09-06T15:28:59.004Z,2.72
2022-09-06T15:31:27.336Z,2.78
2022-09-06T15:33:55.675Z,2.63
2022-09-06T15:36:24.039Z,2.53
2022-09-06T15:38:54.205Z,2.53
2022-09-06T15:41:25.257Z,2.90
2022-09-06T15:43:56.609Z,2.95
2022-09-06T15:46:42.684Z,3.05
2022-09-06T15:49:12.400Z,3.03
2022-09-06T15:51:41.968Z,3.22
2022-09-06T15:54:12.669Z,2.90
2022-09-06T15:56:39.909Z,2.60
2022-09-06T15:59:07.846Z,2.90
2022-09-06T16:01:36.445Z,3.13
2022-09-06T16:04:06.818Z,3.22
2022-09-06T16:06:37.557Z,3.20
2022-09-06T16:09:08.089Z,3.05
2022-09-06T16:11:38.400Z,2.70
2022-09-06T16:14:10.448Z,3.30
2022-09-06T16:16:40.458Z,3.10
2022-09-06T16:19:08.503Z,3.00
2022-09-06T16:21:38.529Z,2.95
2022-09-06T16:24:08.093Z,2.97
2022-09-06T16:26:39.349Z,2.72
2022-09-06T16:29:09.550Z,2.85
2022-09-06T16:31:40.319Z,2.90
2022-09-06T16:34:08.887Z,3.00
2022-09-06T16:36:36.866Z,3.05
2022-09-06T16:39:04.941Z,2.83
2022-09-06T16:41:35.613Z,3.13
2022-09-06T16:44:05.052Z,3.50
2022-09-06T16:46:33.001Z,2.90
2022-09-06T16:49:02.936Z,3.33
2022-09-06T16:51:32.178Z,2.90
2022-09-06T16:54:01.320Z,3.20
2022-09-06T16:56:33.242Z,2.80
2022-09-06T16:59:02.700Z,2.90
2022-09-06T17:01:32.921Z,3.00
2022-09-06T17:04:02.460Z,3.13
2022-09-06T17:06:30.952Z,2.95
2022-09-06T17:08:59.289Z,3.30
2022-09-06T17:14:29.320Z,3.45
2022-09-06T17:17:07.271Z,3.30
2022-09-06T17:19:36.477Z,3.25
2022-09-06T17:22:04.416Z,3.30
2022-09-06T17:24:32.387Z,2.72
2022-09-06T17:27:00.232Z,3.40
2022-09-06T17:29:28.832Z,3.60
2022-09-06T17:31:58.168Z,3.55
2022-09-06T17:34:26.711Z,3.67
2022-09-06T17:36:54.551Z,3.30
2022-09-06T17:39:22.474Z,3.30
2022-09-06T17:41:53.303Z,3.17
2022-09-06T17:44:22.739Z,3.17
2022-09-06T17:47:12.104Z,3.65
2022-09-06T17:49:39.995Z,3.40
2022-09-06T17:52:07.883Z,3.60
2022-09-06T17:54:35.695Z,3.80
2022-09-06T17:57:03.533Z,3.58
2022-09-06T17:59:35.534Z,3.97
2022-09-06T18:02:04.414Z,3.53
2022-09-06T18:04:32.300Z,3.80
2022-09-06T18:07:01.571Z,3.63
2022-09-06T18:09:29.440Z,3.75
2022-09-06T18:11:58.889Z,4.05
2022-09-06T18:14:28.423Z,4.30
2022-09-06T18:16:56.472Z,4.43
2022-09-06T18:19:24.371Z,3.95
2022-09-06T18:21:52.295Z,3.88
2022-09-06T18:24:21.714Z,4.22
2022-09-06T18:26:50.008Z,4.25
2022-09-06T18:29:18.403Z,4.07
2022-09-06T18:31:46.297Z,4.10
2022-09-06T18:34:15.929Z,4.05
2022-09-06T18:36:43.943Z,3.90
2022-09-06T18:39:13.135Z,3.83
2022-09-06T18:41:59.575Z,4.10
2022-09-06T18:44:32.223Z,3.87
2022-09-06T18:47:02.016Z,4.60
2022-09-06T18:49:30.309Z,4.10
2022-09-06T18:51:58.125Z,4.03
2022-09-06T18:54:26.070Z,4.50
2022-09-06T18:56:55.307Z,4.53
2022-09-06T18:59:23.374Z,4.27
2022-09-06T19:01:51.544Z,4.07
2022-09-06T19:04:19.420Z,4.10
2022-09-06T19:06:47.268Z,4.47
2022-09-06T19:09:17.126Z,4.20
2022-09-06T19:11:46.941Z,4.30
2022-09-06T19:14:16.233Z,4.07
2022-09-06T19:16:45.201Z,4.50
2022-09-06T19:19:13.388Z,4.47
2022-09-06T19:21:42.469Z,4.47
2022-09-06T19:24:12.480Z,4.20
2022-09-06T19:26:44.108Z,4.33
2022-09-06T19:29:15.426Z,4.50
2022-09-06T19:31:45.708Z,4.27
2022-09-06T19:34:15.610Z,4.27
2022-09-06T19:36:44.867Z,4.40
2022-09-06T19:39:15.681Z,5.07
2022-09-06T19:41:45.099Z,4.47
2022-09-06T19:44:13.523Z,4.43
2022-09-06T19:46:45.935Z,4.50
2022-09-06T19:49:16.321Z,4.10
2022-09-06T19:51:46.238Z,4.30
2022-09-06T19:54:15.310Z,4.50
2022-09-06T19:56:44.156Z,4.43
2022-09-06T19:59:13.601Z,4.30
2022-09-06T20:01:43.982Z,4.10
2022-09-06T20:04:13.249Z,4.10
2022-09-06T20:06:42.536Z,4.27
2022-09-06T20:09:11.874Z,4.30
2022-09-06T20:11:42.026Z,4.43
2022-09-06T20:14:10.185Z,4.27
2022-09-06T20:16:41.758Z,4.37
2022-09-06T20:19:11.818Z,4.50
2022-09-06T20:21:39.760Z,4.67
2022-09-06T20:24:09.422Z,4.63
2022-09-06T20:26:37.693Z,4.40
2022-09-06T20:29:06.575Z,4.57
2022-09-06T20:31:36.323Z,4.70
2022-09-06T20:34:05.765Z,4.20
2022-09-06T20:36:33.861Z,4.90
2022-09-06T20:39:02.075Z,4.17
2022-09-06T20:41:31.567Z,4.37
2022-09-06T20:44:01.149Z,4.50
2022-09-06T20:46:30.804Z,4.47
2022-09-06T20:49:03.520Z,4.60
2022-09-06T20:51:32.316Z,4.30
2022-09-06T20:54:01.540Z,4.53
2022-09-06T20:56:34.256Z,4.30
2022-09-06T20:59:03.975Z,4.50
2022-09-06T21:01:34.640Z,4.60
2022-09-06T21:04:05.116Z,4.50
2022-09-06T21:06:35.618Z,4.60
2022-09-06T21:09:04.499Z,4.60
2022-09-06T21:11:34.052Z,4.37
2022-09-06T21:14:02.352Z,4.60
2022-09-06T21:16:31.341Z,4.60
2022-09-06T21:19:00.440Z,4.70
2022-09-06T21:21:29.805Z,5.20
2022-09-06T21:23:57.840Z,5.47
2022-09-06T21:26:25.768Z,5.07
2022-09-06T21:28:55.329Z,4.53
2022-09-06T21:31:24.772Z,4.67
2022-09-06T21:33:53.934Z,5.17
2022-09-06T21:36:25.021Z,5.23
2022-09-06T21:38:56.135Z,5.00
2022-09-06T21:41:25.060Z,5.17
2022-09-06T21:43:56.055Z,5.03
2022-09-06T21:46:31.719Z,4.90
2022-09-06T21:49:02.510Z,4.73
2022-09-06T21:51:30.448Z,5.03
2022-09-06T21:53:59.556Z,5.17
2022-09-06T21:56:27.579Z,4.33
2022-09-06T21:58:58.710Z,4.67
2022-09-06T22:01:28.618Z,4.87
2022-09-06T22:03:56.994Z,4.80
2022-09-06T22:06:28.631Z,4.70
2022-09-06T22:08:58.194Z,4.70
2022-09-06T22:11:27.768Z,4.60
2022-09-06T22:13:59.454Z,5.07
2022-09-06T22:16:28.475Z,5.57
2022-09-06T22:18:56.449Z,5.10
2022-09-06T22:21:24.704Z,5.83
2022-09-06T22:23:53.888Z,5.20
2022-09-06T22:26:22.320Z,4.93
2022-09-06T22:28:54.583Z,5.37
2022-09-06T22:31:25.233Z,5.20
2022-09-06T22:33:53.472Z,5.53
2022-09-06T22:36:23.309Z,5.13
2022-09-06T22:38:53.063Z,5.43
2022-09-06T22:41:20.903Z,5.23
2022-09-06T22:43:48.731Z,4.87
2022-09-06T22:46:16.660Z,5.03
2022-09-06T22:48:45.988Z,5.47
2022-09-06T22:51:13.856Z,5.40
2022-09-06T22:53:41.712Z,5.47
2022-09-06T22:56:09.546Z,5.60
2022-09-06T22:58:37.402Z,5.93
2022-09-06T23:01:10.334Z,6.53
2022-09-06T23:03:38.803Z,5.97
2022-09-06T23:06:08.528Z,5.57
2022-09-06T23:08:37.829Z,5.97
2022-09-06T23:11:07.901Z,5.97
2022-09-06T23:13:36.150Z,5.40
2022-09-06T23:16:05.998Z,4.63
2022-09-06T23:18:34.007Z,5.33
2022-09-06T23:21:10.648Z,5.33
2022-09-06T23:23:39.519Z,5.43
2022-09-06T23:26:08.778Z,5.80
2022-09-06T23:28:37.506Z,5.90
2022-09-06T23:31:06.590Z,5.50
2022-09-06T23:33:36.851Z,5.50
2022-09-06T23:36:05.566Z,5.90
2022-09-06T23:38:36.127Z,5.47
2022-09-06T23:41:04.529Z,5.70
2022-09-06T23:43:32.907Z,6.00
2022-09-06T23:46:00.973Z,5.13
2022-09-06T23:48:29.078Z,4.63
2022-09-06T23:50:57.187Z,5.23
2022-09-06T23:53:25.282Z,5.73
2022-09-06T23:55:54.664Z,5.60
2022-09-06T23:58:22.549Z,5.40
